Time;durP1;ratioP1;P1;durP2;ratioP2;P2;SDS_P1;SDS_P2;PMS_P1;PMS_P2;Temp;Humidity;BMP_temperature;BMP_pressure;BME280_temperature;BME280_humidity;BME280_pressure;Samples;Min_cycle;Max_cycle;Signal;HPM_P1;HPM_P2
2023/01/25 00:01:59;;;;;;;26.47;21.17;;;5.00;94.40;;;;;;5015919;28;20482;-56
2023/01/25 00:04:27;;;;;;;27.47;21.80;;;5.00;94.40;;;;;;5016212;28;20453;-57
2023/01/25 00:06:54;;;;;;;26.50;22.30;;;5.00;94.40;;;;;;5016282;28;20462;-57
2023/01/25 00:09:21;;;;;;;27.40;21.90;;;5.00;94.30;;;;;;5016095;28;20478;-57
2023/01/25 00:11:48;;;;;;;27.07;22.63;;;4.90;94.30;;;;;;5015999;28;20472;-57
2023/01/25 00:14:16;;;;;;;28.97;21.50;;;4.90;94.30;;;;;;5016270;28;20451;-57
2023/01/25 00:16:43;;;;;;;28.57;22.47;;;4.90;94.30;;;;;;5015948;28;20447;-57
2023/01/25 00:19:11;;;;;;;24.33;19.87;;;4.90;94.40;;;;;;5016245;28;20458;-57
2023/01/25 00:21:38;;;;;;;25.60;20.17;;;4.90;94.40;;;;;;5015636;28;20498;-56
2023/01/25 00:24:06;;;;;;;25.47;20.30;;;4.90;94.40;;;;;;5015786;28;20458;-57
2023/01/25 00:26:34;;;;;;;30.30;21.53;;;4.90;94.50;;;;;;5015759;28;20455;-57
2023/01/25 00:29:01;;;;;;;25.47;20.50;;;4.90;94.50;;;;;;5016090;28;20462;-57
2023/01/25 00:31:37;;;;;;;28.17;22.77;;;4.90;94.50;;;;;;5015422;28;20458;-57
2023/01/25 00:34:28;;;;;;;24.90;21.07;;;4.90;94.50;;;;;;5015721;28;20440;-57
2023/01/25 00:36:56;;;;;;;25.20;21.67;;;4.90;94.60;;;;;;5015340;28;20462;-57
2023/01/25 00:39:25;;;;;;;24.60;19.80;;;4.90;94.50;;;;;;5015448;28;20474;-56
2023/01/25 00:41:52;;;;;;;27.60;21.87;;;4.90;94.50;;;;;;5015057;28;20474;-56
2023/01/25 00:44:19;;;;;;;28.67;22.20;;;4.90;94.60;;;;;;5015152;28;20461;-56
2023/01/25 00:46:47;;;;;;;30.30;22.70;;;4.90;94.70;;;;;;5015416;28;20464;-56
2023/01/25 00:49:20;;;;;;;29.27;22.93;;;4.90;95.10;;;;;;5015355;28;20459;-57
2023/01/25 00:51:47;;;;;;;24.27;19.97;;;4.90;94.70;;;;;;5015309;28;20460;-56
2023/01/25 00:54:13;;;;;;;27.13;21.73;;;4.90;94.70;;;;;;5015228;28;20496;-56
2023/01/25 00:56:40;;;;;;;29.93;23.57;;;4.90;94.80;;;;;;5014157;28;20427;-56
2023/01/25 00:59:07;;;;;;;29.57;23.27;;;4.90;94.90;;;;;;5015249;28;20509;-56
2023/01/25 01:01:34;;;;;;;27.63;20.80;;;4.90;94.90;;;;;;5014893;28;20487;-57
2023/01/25 01:04:02;;;;;;;28.90;22.60;;;4.90;95.00;;;;;;5015304;28;20451;-57
2023/01/25 01:06:29;;;;;;;31.60;24.83;;;4.90;95.00;;;;;;5015094;28;20449;-57
2023/01/25 01:08:56;;;;;;;26.93;21.30;;;4.90;95.00;;;;;;5014581;28;20979;-57
2023/01/25 01:11:23;;;;;;;29.50;22.87;;;4.90;95.10;;;;;;5014823;28;20811;-57
2023/01/25 01:13:49;;;;;;;28.20;22.10;;;4.90;95.10;;;;;;5014458;28;20895;-57
2023/01/25 01:16:16;;;;;;;28.30;22.37;;;4.90;95.10;;;;;;5014970;28;20446;-58
2023/01/25 01:18:45;;;;;;;32.17;22.70;;;4.90;95.10;;;;;;5014876;28;20473;-57
2023/01/25 01:21:14;;;;;;;28.40;21.10;;;4.90;95.10;;;;;;5014656;28;20474;-57
2023/01/25 01:23:41;;;;;;;29.77;24.00;;;4.80;95.10;;;;;;5014693;28;20473;-57
2023/01/25 01:26:11;;;;;;;25.17;20.83;;;4.90;95.20;;;;;;5014809;28;20459;-57
2023/01/25 01:28:38;;;;;;;27.33;21.73;;;4.80;95.10;;;;;;5014511;28;20938;-56
2023/01/25 01:31:07;;;;;;;25.30;20.57;;;4.90;95.30;;;;;;5014666;28;20498;-57
2023/01/25 01:33:34;;;;;;;28.17;23.20;;;4.90;95.30;;;;;;5014551;28;20478;-57
2023/01/25 01:36:07;;;;;;;31.10;22.53;;;4.90;95.30;;;;;;5015343;28;20800;-57
2023/01/25 01:38:35;;;;;;;27.33;21.83;;;4.90;95.30;;;;;;5014310;28;20460;-55
2023/01/25 01:41:02;;;;;;;28.67;22.80;;;4.80;95.30;;;;;;5014457;28;20509;-57
2023/01/25 01:43:29;;;;;;;26.87;21.47;;;4.90;95.30;;;;;;5013788;28;20477;-57
2023/01/25 01:45:58;;;;;;;29.03;21.60;;;4.90;95.30;;;;;;5014075;28;21028;-57
2023/01/25 01:48:36;;;;;;;27.10;22.23;;;4.80;95.30;;;;;;5014252;28;20893;-57
2023/01/25 01:51:08;;;;;;;29.37;23.10;;;4.80;95.20;;;;;;5014506;28;20432;-56
2023/01/25 01:53:37;;;;;;;27.37;22.43;;;4.80;95.30;;;;;;5014305;28;20477;-56
2023/01/25 01:56:09;;;;;;;31.10;22.00;;;4.80;95.30;;;;;;5014786;28;20449;-56
2023/01/25 01:58:37;;;;;;;28.10;22.10;;;4.80;95.40;;;;;;5014950;28;20431;-57
2023/01/25 02:01:04;;;;;;;27.73;21.80;;;4.80;95.40;;;;;;5014430;28;20891;-57
2023/01/25 02:03:31;;;;;;;27.93;22.00;;;4.80;95.40;;;;;;5015018;28;20463;-57
2023/01/25 02:06:04;;;;;;;30.83;23.13;;;4.80;95.50;;;;;;5015136;28;20459;-57
2023/01/25 02:08:35;;;;;;;32.87;23.43;;;4.80;95.50;;;;;;5015450;28;20442;-57
2023/01/25 02:11:04;;;;;;;30.80;21.63;;;4.80;95.50;;;;;;5015565;28;20434;-57
2023/01/25 02:13:32;;;;;;;30.37;24.10;;;4.80;95.70;;;;;;5014510;28;20483;-55
2023/01/25 02:15:58;;;;;;;29.10;22.17;;;4.80;95.60;;;;;;5013828;28;20493;-56
2023/01/25 02:18:26;;;;;;;31.67;22.97;;;4.80;95.60;;;;;;5013978;28;20493;-56
2023/01/25 02:20:55;;;;;;;29.37;22.33;;;4.80;95.60;;;;;;5013964;28;20489;-55
2023/01/25 02:23:27;;;;;;;32.77;23.80;;;4.80;95.70;;;;;;5013943;28;20471;-56
2023/01/25 02:25:57;;;;;;;31.03;23.40;;;4.80;95.70;;;;;;5014034;28;20440;-56
2023/01/25 02:28:27;;;;;;;32.13;24.23;;;4.80;95.70;;;;;;5013833;28;20439;-57
2023/01/25 02:30:54;;;;;;;31.37;25.90;;;4.80;95.70;;;;;;5013795;28;20458;-56
2023/01/25 02:33:24;;;;;;;32.57;24.67;;;4.80;95.70;;;;;;5013636;28;20481;-57
2023/01/25 02:35:56;;;;;;;33.17;24.07;;;4.80;95.80;;;;;;5013677;28;20465;-57
2023/01/25 02:38:23;;;;;;;30.67;23.93;;;4.70;95.80;;;;;;5013418;28;20548;-56
2023/01/25 02:40:55;;;;;;;34.30;25.30;;;4.70;95.80;;;;;;5013548;28;20486;-56
2023/01/25 02:43:24;;;;;;;38.07;23.80;;;4.80;95.90;;;;;;5013560;28;20882;-55
2023/01/25 02:46:00;;;;;;;31.17;24.50;;;4.80;95.90;;;;;;5013558;28;20459;-56
2023/01/25 02:48:27;;;;;;;31.73;23.60;;;4.80;95.90;;;;;;5013517;28;20449;-56
2023/01/25 02:50:53;;;;;;;32.90;26.10;;;4.80;96.00;;;;;;5013279;28;20801;-57
2023/01/25 02:53:20;;;;;;;28.13;22.73;;;4.70;95.90;;;;;;5013570;28;20475;-55
2023/01/25 02:55:47;;;;;;;34.87;24.80;;;4.70;96.00;;;;;;5015526;28;20460;-57
2023/01/25 02:58:13;;;;;;;35.80;24.63;;;4.70;96.10;;;;;;5017389;28;20450;-57
2023/01/25 03:00:42;;;;;;;32.53;24.50;;;4.70;96.10;;;;;;5017262;28;20485;-56
2023/01/25 03:03:09;;;;;;;32.47;23.40;;;4.70;96.20;;;;;;5017196;28;20467;-55
2023/01/25 03:05:36;;;;;;;31.60;22.60;;;4.70;96.20;;;;;;5017359;28;20453;-56
2023/01/25 03:08:02;;;;;;;34.80;24.07;;;4.70;96.30;;;;;;5017279;28;20453;-56
2023/01/25 03:10:29;;;;;;;36.30;25.97;;;4.70;96.30;;;;;;5017075;28;20450;-56
2023/01/25 03:12:56;;;;;;;30.67;24.57;;;4.70;96.30;;;;;;5017176;28;20468;-57
2023/01/25 03:15:23;;;;;;;34.17;25.17;;;4.60;96.40;;;;;;5017221;28;20854;-57
2023/01/25 03:17:51;;;;;;;32.67;23.40;;;4.70;96.40;;;;;;5016818;28;20548;-57
2023/01/25 03:20:18;;;;;;;35.13;25.87;;;4.70;96.50;;;;;;5016958;28;20478;-56
2023/01/25 03:22:45;;;;;;;30.63;22.30;;;4.70;96.50;;;;;;5016836;28;20867;-56
2023/01/25 03:25:11;;;;;;;29.43;22.83;;;4.70;96.60;;;;;;5016998;28;20462;-57
2023/01/25 03:27:38;;;;;;;33.60;24.33;;;4.70;96.60;;;;;;5016640;28;20928;-57
2023/01/25 03:30:06;;;;;;;37.40;26.50;;;4.70;96.60;;;;;;5016899;28;20454;-57
2023/01/25 03:32:33;;;;;;;32.17;22.67;;;4.60;96.70;;;;;;5016748;28;20475;-57
2023/01/25 03:35:01;;;;;;;36.07;24.37;;;4.70;96.80;;;;;;5016804;28;20435;-57
2023/01/25 03:37:30;;;;;;;34.13;24.03;;;4.70;96.80;;;;;;5016545;28;20465;-56
2023/01/25 03:39:56;;;;;;;32.20;23.00;;;4.70;96.80;;;;;;5016651;28;20435;-57
2023/01/25 03:42:23;;;;;;;32.40;22.23;;;4.60;96.70;;;;;;5016522;28;20923;-57
2023/01/25 03:44:50;;;;;;;33.70;23.93;;;4.70;96.80;;;;;;5016228;28;21058;-57
2023/01/25 03:47:17;;;;;;;30.43;21.80;;;4.70;96.70;;;;;;5016549;28;20454;-57
2023/01/25 03:49:44;;;;;;;35.57;24.90;;;4.60;96.70;;;;;;5016514;28;20545;-56
2023/01/25 03:52:12;;;;;;;35.47;24.20;;;4.60;96.70;;;;;;5016302;28;20477;-57
2023/01/25 03:54:39;;;;;;;31.57;23.20;;;4.60;96.80;;;;;;5016469;28;20439;-57
2023/01/25 03:57:06;;;;;;;29.37;21.50;;;4.60;96.80;;;;;;5016279;28;20450;-57
2023/01/25 03:59:32;;;;;;;35.00;24.30;;;4.60;96.80;;;;;;5016377;28;20789;-57
2023/01/25 04:01:59;;;;;;;32.73;22.93;;;4.70;96.90;;;;;;5015747;28;20601;-57
2023/01/25 04:04:26;;;;;;;29.13;21.83;;;4.60;96.90;;;;;;5016159;28;20455;-56
2023/01/25 04:06:53;;;;;;;30.23;22.67;;;4.60;96.90;;;;;;5015517;28;20457;-57
2023/01/25 04:09:21;;;;;;;33.37;23.57;;;4.60;97.00;;;;;;5015961;28;20829;-57
2023/01/25 04:11:49;;;;;;;33.30;23.60;;;4.60;97.00;;;;;;5015970;28;20448;-57
2023/01/25 04:14:16;;;;;;;35.33;25.07;;;4.60;97.00;;;;;;5015866;28;20977;-56
2023/01/25 04:16:43;;;;;;;33.10;23.30;;;4.60;97.00;;;;;;5015981;28;20461;-57
2023/01/25 04:19:09;;;;;;;30.93;21.40;;;4.60;97.00;;;;;;5015624;28;20552;-57
2023/01/25 04:21:36;;;;;;;36.87;22.87;;;4.70;97.10;;;;;;5015972;28;20481;-57
2023/01/25 04:24:03;;;;;;;36.83;24.57;;;4.70;97.10;;;;;;5016145;28;20454;-56
2023/01/25 04:26:31;;;;;;;31.40;23.50;;;4.70;97.20;;;;;;5016029;28;20455;-56
2023/01/25 04:28:58;;;;;;;33.53;24.40;;;4.70;97.20;;;;;;5015797;28;20868;-57
2023/01/25 04:31:25;;;;;;;33.53;23.33;;;4.70;97.20;;;;;;5015588;28;20439;-57
2023/01/25 04:33:51;;;;;;;33.00;22.63;;;4.70;97.20;;;;;;5015862;28;20490;-56
2023/01/25 04:36:18;;;;;;;37.17;24.17;;;4.60;97.20;;;;;;5015901;28;20453;-57
2023/01/25 04:38:45;;;;;;;30.23;22.03;;;4.60;97.20;;;;;;5015501;28;20470;-57
2023/01/25 04:41:11;;;;;;;33.03;22.77;;;4.60;97.20;;;;;;5015152;28;20490;-57
2023/01/25 04:43:39;;;;;;;31.30;21.87;;;4.60;97.20;;;;;;5015029;28;20856;-56
2023/01/25 04:46:06;;;;;;;32.93;23.10;;;4.60;97.20;;;;;;5015409;28;20455;-57
2023/01/25 04:48:33;;;;;;;34.70;24.37;;;4.60;97.60;;;;;;5015426;28;20462;-57
2023/01/25 04:51:00;;;;;;;32.33;24.03;;;4.60;97.30;;;;;;5015014;28;20454;-57
2023/01/25 04:53:27;;;;;;;31.80;24.60;;;4.60;97.20;;;;;;5015267;28;20482;-56
2023/01/25 04:55:53;;;;;;;37.30;25.17;;;4.60;97.20;;;;;;5015339;28;20457;-57
2023/01/25 04:58:20;;;;;;;33.27;23.30;;;4.60;97.20;;;;;;5016104;28;20458;-57
2023/01/25 05:00:49;;;;;;;36.17;24.83;;;4.60;97.20;;;;;;5014889;28;21016;-57
2023/01/25 05:03:15;;;;;;;35.30;24.07;;;4.60;97.30;;;;;;5014890;28;20490;-56
2023/01/25 05:05:46;;;;;;;32.77;23.17;;;4.60;97.30;;;;;;5014787;28;20951;-57
2023/01/25 05:08:13;;;;;;;36.47;23.27;;;4.60;97.30;;;;;;5015092;28;20510;-57
2023/01/25 05:10:40;;;;;;;36.10;24.60;;;4.60;97.30;;;;;;5015112;28;20451;-57
2023/01/25 05:13:07;;;;;;;34.83;25.13;;;4.60;97.30;;;;;;5014729;28;20470;-56
2023/01/25 05:15:33;;;;;;;33.30;23.20;;;4.60;97.40;;;;;;5014760;28;20468;-56
2023/01/25 05:18:01;;;;;;;33.80;23.17;;;4.60;97.40;;;;;;5014137;28;20946;-56
2023/01/25 05:20:28;;;;;;;36.30;24.53;;;4.60;97.40;;;;;;5013853;28;20943;-56
2023/01/25 05:22:55;;;;;;;34.00;25.70;;;4.60;97.40;;;;;;5014751;28;20493;-57
2023/01/25 05:28:17;;;;;;;36.30;24.50;;;4.60;97.40;;;;;;4935446;29;20433;-57
2023/01/25 05:30:44;;;;;;;33.27;23.77;;;4.60;97.80;;;;;;4995335;28;20812;-56
2023/01/25 05:33:12;;;;;;;35.77;25.27;;;4.60;97.50;;;;;;5014551;28;20465;-57
2023/01/25 05:35:39;;;;;;;35.73;24.03;;;4.60;97.50;;;;;;5014560;28;20447;-57
2023/01/25 05:38:05;;;;;;;38.17;26.00;;;4.60;97.50;;;;;;5014303;28;20468;-57
2023/01/25 05:40:33;;;;;;;35.23;24.13;;;4.60;97.50;;;;;;5014391;28;20456;-56
2023/01/25 05:42:59;;;;;;;43.20;27.47;;;4.60;97.60;;;;;;5013731;28;20904;-56
2023/01/25 05:45:26;;;;;;;35.40;24.70;;;4.50;97.60;;;;;;5014577;28;20434;-57
2023/01/25 05:47:53;;;;;;;40.00;26.80;;;4.50;97.60;;;;;;5014430;28;20454;-57
2023/01/25 05:50:22;;;;;;;37.77;25.57;;;4.50;97.70;;;;;;5014235;28;20948;-57
2023/01/25 05:52:50;;;;;;;36.10;24.93;;;4.50;97.80;;;;;;5013789;28;21004;-56
2023/01/25 05:55:16;;;;;;;39.67;27.27;;;4.50;97.80;;;;;;5014223;28;20860;-57
2023/01/25 05:57:44;;;;;;;41.90;27.17;;;4.50;97.80;;;;;;5013752;28;20454;-57
2023/01/25 06:00:12;;;;;;;39.00;26.53;;;4.50;97.80;;;;;;5014005;28;20439;-56
2023/01/25 06:02:39;;;;;;;37.60;25.27;;;4.50;97.90;;;;;;5013745;28;20499;-56
2023/01/25 06:05:06;;;;;;;39.63;25.13;;;4.50;97.90;;;;;;5014185;28;20467;-57
2023/01/25 06:07:36;;;;;;;38.37;26.23;;;4.50;98.00;;;;;;5013980;28;20456;-57
2023/01/25 06:10:03;;;;;;;36.43;25.77;;;4.50;98.00;;;;;;5013942;28;20524;-56
2023/01/25 06:12:30;;;;;;;40.23;27.00;;;4.50;98.00;;;;;;5013817;28;20478;-56
2023/01/25 06:14:57;;;;;;;47.13;29.00;;;4.50;98.10;;;;;;5014061;28;20451;-57
2023/01/25 06:17:23;;;;;;;38.67;26.10;;;4.50;98.10;;;;;;5014071;28;20454;-56
2023/01/25 06:19:50;;;;;;;40.67;28.33;;;4.50;98.10;;;;;;5014141;28;20451;-57
2023/01/25 06:22:17;;;;;;;45.70;28.20;;;4.50;98.20;;;;;;5013254;28;20487;-56
2023/01/25 06:24:45;;;;;;;44.83;29.40;;;4.50;98.20;;;;;;5013819;28;20442;-57
2023/01/25 06:27:12;;;;;;;45.33;29.30;;;4.50;98.30;;;;;;5013856;28;20454;-57
2023/01/25 06:29:39;;;;;;;44.67;29.27;;;4.40;98.30;;;;;;5013343;28;20503;-56
2023/01/25 06:32:05;;;;;;;47.87;28.07;;;4.40;98.40;;;;;;5013646;28;20470;-57
2023/01/25 06:34:32;;;;;;;43.60;26.30;;;4.40;98.50;;;;;;5013713;28;20459;-57
2023/01/25 06:36:59;;;;;;;44.10;28.50;;;4.40;98.50;;;;;;5013584;28;20455;-57
2023/01/25 06:39:25;;;;;;;43.20;27.47;;;4.40;98.50;;;;;;5013859;28;20453;-56
2023/01/25 06:41:53;;;;;;;45.47;26.43;;;4.40;98.60;;;;;;5013450;28;20491;-57
2023/01/25 06:44:20;;;;;;;40.93;27.50;;;4.40;98.70;;;;;;5013217;28;20449;-56
2023/01/25 06:46:47;;;;;;;40.50;27.27;;;4.40;98.70;;;;;;5013248;28;20832;-57
2023/01/25 06:49:14;;;;;;;49.50;29.00;;;4.40;98.60;;;;;;5013681;28;20462;-57
2023/01/25 06:51:40;;;;;;;45.63;27.40;;;4.30;98.60;;;;;;5012663;28;20457;-57
2023/01/25 06:54:07;;;;;;;44.33;30.23;;;4.30;98.70;;;;;;5013450;28;20462;-57
2023/01/25 06:56:34;;;;;;;42.47;26.70;;;4.30;98.80;;;;;;5013517;28;20453;-56
2023/01/25 06:59:02;;;;;;;37.57;22.67;;;4.20;98.90;;;;;;5013500;28;20443;-56
2023/01/25 07:01:29;;;;;;;39.13;24.10;;;4.20;99.00;;;;;;5013440;28;20441;-56
2023/01/25 07:03:57;;;;;;;37.43;25.00;;;4.20;99.10;;;;;;5013410;28;20835;-57
2023/01/25 07:06:25;;;;;;;43.20;25.00;;;4.20;99.10;;;;;;5013169;28;20916;-56
2023/01/25 07:08:52;;;;;;;34.97;23.20;;;4.20;99.20;;;;;;5013436;28;20466;-57
2023/01/25 07:11:19;;;;;;;36.63;24.80;;;4.20;99.20;;;;;;5013364;28;20450;-56
2023/01/25 07:13:47;;;;;;;41.67;25.80;;;4.20;99.20;;;;;;5013264;28;20475;-56
2023/01/25 07:16:18;;;;;;;37.67;24.00;;;4.20;99.30;;;;;;5013443;28;20465;-56
2023/01/25 07:18:45;;;;;;;35.50;24.33;;;4.20;99.40;;;;;;5013829;28;20435;-57
2023/01/25 07:21:14;;;;;;;37.60;24.50;;;4.20;99.40;;;;;;5013137;28;21010;-56
2023/01/25 07:23:41;;;;;;;37.07;22.80;;;4.20;99.50;;;;;;5013122;28;20850;-56
2023/01/25 07:26:16;;;;;;;32.93;21.37;;;4.20;99.50;;;;;;5012958;28;20468;-57
2023/01/25 07:28:42;;;;;;;34.43;22.20;;;4.20;99.50;;;;;;5013292;28;20478;-56
2023/01/25 07:31:09;;;;;;;34.30;22.83;;;4.20;99.40;;;;;;5013113;28;20967;-55
2023/01/25 07:33:37;;;;;;;37.77;23.90;;;4.20;99.30;;;;;;5013080;28;20530;-56
2023/01/25 07:36:07;;;;;;;34.27;23.00;;;4.20;99.30;;;;;;5013134;28;20454;-57
2023/01/25 07:38:35;;;;;;;32.93;22.13;;;4.30;99.40;;;;;;5012845;28;20541;-56
2023/01/25 07:41:01;;;;;;;42.83;24.33;;;4.30;99.40;;;;;;5013162;28;20465;-57
2023/01/25 07:43:29;;;;;;;36.00;23.70;;;4.20;99.40;;;;;;5015855;28;20914;-57
2023/01/25 07:46:01;;;;;;;35.03;24.23;;;4.30;99.50;;;;;;5016578;28;20475;-57
2023/01/25 07:48:28;;;;;;;37.10;22.53;;;4.30;99.50;;;;;;5016647;28;20447;-57
2023/01/25 07:51:11;;;;;;;37.50;25.70;;;4.30;99.50;;;;;;5016673;28;20435;-57
2023/01/25 07:53:38;;;;;;;34.27;23.10;;;4.30;99.40;;;;;;5016157;28;21008;-57
2023/01/25 07:56:06;;;;;;;38.60;24.67;;;4.30;99.20;;;;;;5016470;28;20907;-57
2023/01/25 07:58:33;;;;;;;42.90;23.90;;;4.20;99.20;;;;;;5016670;28;20509;-57
2023/01/25 08:01:06;;;;;;;42.67;24.03;;;4.20;99.20;;;;;;5016159;28;20498;-56
2023/01/25 08:03:32;;;;;;;37.37;24.30;;;4.20;99.60;;;;;;5016572;28;20487;-57
2023/01/25 08:06:00;;;;;;;40.87;23.77;;;4.20;99.20;;;;;;5016359;28;20850;-57
2023/01/25 08:08:27;;;;;;;41.47;24.63;;;4.10;99.20;;;;;;5015971;28;20955;-57
2023/01/25 08:10:54;;;;;;;41.33;25.60;;;4.10;99.40;;;;;;5016524;28;20449;-56
2023/01/25 08:13:20;;;;;;;42.63;25.53;;;4.10;99.50;;;;;;5015485;28;21004;-56
2023/01/25 08:15:53;;;;;;;33.77;23.20;;;4.10;99.70;;;;;;5016263;28;20527;-57
2023/01/25 08:18:20;;;;;;;37.97;23.17;;;4.10;99.70;;;;;;5015971;28;20444;-57
2023/01/25 08:20:48;;;;;;;36.47;23.47;;;4.10;99.80;;;;;;5016151;28;20819;-57
2023/01/25 08:23:16;;;;;;;34.13;23.37;;;4.10;99.80;;;;;;5016103;28;20482;-56
2023/01/25 08:25:43;;;;;;;35.63;22.50;;;4.10;99.80;;;;;;5015903;28;20440;-57
2023/01/25 08:28:09;;;;;;;38.83;24.07;;;4.10;99.80;;;;;;5015940;28;20461;-57
2023/01/25 08:30:36;;;;;;;33.67;21.60;;;4.20;99.70;;;;;;5016024;28;20459;-56
2023/01/25 08:33:03;;;;;;;37.63;22.20;;;4.10;99.50;;;;;;5015820;28;20483;-56
2023/01/25 08:35:30;;;;;;;35.20;22.30;;;3.90;99.40;;;;;;5015720;28;20505;-57
2023/01/25 08:37:56;;;;;;;36.40;23.00;;;3.90;99.60;;;;;;5015870;28;20489;-57
2023/01/25 08:40:25;;;;;;;37.53;24.20;;;3.90;99.80;;;;;;5015558;28;20460;-56
2023/01/25 08:42:51;;;;;;;35.20;21.83;;;3.80;99.90;;;;;;5015922;28;20514;-56
2023/01/25 08:45:18;;;;;;;35.80;21.83;;;3.80;99.90;;;;;;5015813;28;20449;-57
2023/01/25 08:47:45;;;;;;;36.73;23.20;;;3.80;99.90;;;;;;5016155;28;20530;-57
2023/01/25 08:50:12;;;;;;;44.47;24.80;;;3.70;99.90;;;;;;5016387;28;20463;-57
2023/01/25 08:52:39;;;;;;;39.47;25.60;;;3.70;99.90;;;;;;5016217;28;21008;-57
2023/01/25 08:55:06;;;;;;;37.07;23.57;;;3.80;99.90;;;;;;5017490;28;20468;-57
2023/01/25 08:57:34;;;;;;;40.90;24.93;;;3.80;99.90;;;;;;5017160;28;20457;-57
2023/01/25 09:00:01;;;;;;;40.50;22.73;;;3.90;99.90;;;;;;5015435;28;20462;-57
2023/01/25 09:02:27;;;;;;;36.57;23.87;;;3.90;99.90;;;;;;5015139;28;20493;-56
2023/01/25 09:04:54;;;;;;;37.57;23.90;;;3.90;99.90;;;;;;5015421;28;20435;-57
2023/01/25 09:07:21;;;;;;;38.50;24.67;;;3.90;99.90;;;;;;5015238;28;20461;-57
2023/01/25 09:09:48;;;;;;;37.43;23.40;;;3.90;99.90;;;;;;5014932;28;20970;-56
2023/01/25 09:12:14;;;;;;;35.93;22.00;;;3.80;99.90;;;;;;5015163;28;20470;-56
2023/01/25 09:14:42;;;;;;;42.37;25.60;;;3.90;99.90;;;;;;5014916;28;20460;-56
2023/01/25 09:17:09;;;;;;;41.27;25.07;;;3.90;99.90;;;;;;5014907;28;20461;-56
2023/01/25 09:19:36;;;;;;;39.00;25.10;;;4.00;99.90;;;;;;5014843;28;20453;-57
2023/01/25 09:22:03;;;;;;;38.10;24.50;;;4.00;99.90;;;;;;5014645;28;20477;-56
2023/01/25 09:24:30;;;;;;;38.73;24.67;;;4.00;99.90;;;;;;5014724;28;20491;-56
2023/01/25 09:26:56;;;;;;;36.57;23.20;;;4.10;99.90;;;;;;5014879;28;20460;-56
2023/01/25 09:29:23;;;;;;;40.10;23.00;;;4.10;99.90;;;;;;5014710;28;20459;-56
2023/01/25 09:31:51;;;;;;;36.53;23.70;;;4.10;99.90;;;;;;5014203;28;20948;-56
2023/01/25 09:34:18;;;;;;;35.57;22.97;;;4.10;99.90;;;;;;5014600;28;20457;-56
2023/01/25 09:36:45;;;;;;;37.70;25.30;;;4.10;99.90;;;;;;5014499;28;20475;-56
2023/01/25 09:39:12;;;;;;;43.33;25.97;;;4.10;99.90;;;;;;5014389;28;20466;-57
2023/01/25 09:42:17;;;;;;;34.70;23.60;;;4.10;99.90;;;;;;5014250;28;20488;-55
2023/01/25 09:45:08;;;;;;;39.93;24.53;;;4.20;99.90;;;;;;5014459;28;20495;-56
2023/01/25 09:47:45;;;;;;;34.93;23.20;;;4.20;99.90;;;;;;5014376;28;20446;-56
2023/01/25 09:50:37;;;;;;;41.07;24.37;;;4.20;99.90;;;;;;5014372;28;20428;-57
2023/01/25 09:53:27;;;;;;;38.37;24.77;;;4.20;99.90;;;;;;5004455;28;20524;-57
2023/01/25 09:55:57;;;;;;;39.90;24.90;;;4.20;99.90;;;;;;5014295;28;20432;-57
2023/01/25 09:58:30;;;;;;;36.83;24.87;;;4.30;99.80;;;;;;5013913;28;20826;-57
2023/01/25 10:01:11;;;;;;;40.47;24.53;;;4.30;99.80;;;;;;5013823;28;20835;-56
2023/01/25 10:03:46;;;;;;;39.10;25.77;;;4.30;99.80;;;;;;5013787;28;20491;-57
2023/01/25 10:06:14;;;;;;;41.33;26.00;;;4.20;99.60;;;;;;5013693;28;20442;-57
2023/01/25 10:08:52;;;;;;;39.23;24.97;;;4.30;99.70;;;;;;5013947;28;20453;-56
2023/01/25 10:11:24;;;;;;;38.60;23.80;;;4.30;99.70;;;;;;5014076;28;20441;-57
2023/01/25 10:13:50;;;;;;;43.50;26.43;;;4.30;99.60;;;;;;5013515;28;20997;-56
2023/01/25 10:16:23;;;;;;;41.90;25.77;;;4.40;99.70;;;;;;5013934;28;20435;-57
2023/01/25 10:19:03;;;;;;;39.17;25.73;;;4.40;99.60;;;;;;5013581;28;20836;-57
2023/01/25 10:21:34;;;;;;;39.57;26.13;;;4.40;99.60;;;;;;5013893;28;20434;-56
2023/01/25 10:24:18;;;;;;;42.03;26.60;;;4.40;99.60;;;;;;5013796;28;20471;-57
2023/01/25 10:26:52;;;;;;;44.00;27.50;;;4.40;99.50;;;;;;5013902;28;20435;-57
2023/01/25 10:29:21;;;;;;;43.07;26.43;;;4.40;99.50;;;;;;5013504;28;20913;-57
2023/01/25 10:31:52;;;;;;;40.50;26.50;;;4.40;99.30;;;;;;5013786;28;20448;-57
2023/01/25 10:34:22;;;;;;;44.57;26.13;;;4.40;99.10;;;;;;5013743;28;20432;-57
2023/01/25 10:36:53;;;;;;;41.57;25.80;;;4.40;99.10;;;;;;5013679;28;20439;-56
2023/01/25 10:39:21;;;;;;;38.93;26.50;;;4.30;99.00;;;;;;5013381;28;20477;-57
2023/01/25 10:41:54;;;;;;;45.13;25.93;;;4.40;99.10;;;;;;5013571;28;20454;-57
2023/01/25 10:44:22;;;;;;;47.07;27.13;;;4.30;99.10;;;;;;5013283;28;20471;-57
2023/01/25 10:46:56;;;;;;;44.10;27.77;;;4.30;99.10;;;;;;5013578;28;20455;-56
2023/01/25 10:49:29;;;;;;;41.60;24.90;;;4.40;99.20;;;;;;5013615;28;20452;-57
2023/01/25 10:51:56;;;;;;;41.77;26.33;;;4.30;99.20;;;;;;5013521;28;20475;-55
2023/01/25 10:54:24;;;;;;;46.30;27.60;;;4.30;99.00;;;;;;5013528;28;20501;-57
2023/01/25 10:56:52;;;;;;;50.90;29.37;;;4.30;99.10;;;;;;5013533;28;20874;-57
2023/01/25 10:59:23;;;;;;;49.53;27.00;;;4.30;99.30;;;;;;5013149;28;20449;-57
2023/01/25 11:01:50;;;;;;;47.40;29.27;;;4.30;99.40;;;;;;5013607;28;20441;-56
2023/01/25 11:04:29;;;;;;;41.83;26.43;;;4.40;99.50;;;;;;5012187;28;20489;-57
2023/01/25 11:06:56;;;;;;;44.07;26.87;;;4.40;99.50;;;;;;5013456;28;20433;-56
2023/01/25 11:09:33;;;;;;;43.00;26.97;;;4.40;99.40;;;;;;5013372;28;20454;-56
2023/01/25 11:12:01;;;;;;;44.17;28.00;;;4.40;99.30;;;;;;5013009;28;20981;-56
2023/01/25 11:14:30;;;;;;;49.03;29.80;;;4.30;99.20;;;;;;5013163;28;20557;-56
2023/01/25 11:16:58;;;;;;;48.00;29.60;;;4.30;99.30;;;;;;5013942;28;20451;-57
2023/01/25 11:19:31;;;;;;;45.97;28.17;;;4.20;98.90;;;;;;5017883;28;20474;-57
2023/01/25 11:21:59;;;;;;;47.20;29.33;;;4.20;99.00;;;;;;5016910;28;20480;-57
2023/01/25 11:24:28;;;;;;;46.67;27.40;;;4.10;99.20;;;;;;5016938;28;20483;-57
2023/01/25 11:27:27;;;;;;;49.50;29.63;;;4.10;99.40;;;;;;5016995;28;20451;-57
2023/01/25 11:30:09;;;;;;;44.93;28.10;;;4.10;99.50;;;;;;5016993;28;20448;-57
2023/01/25 11:32:38;;;;;;;44.63;28.90;;;4.20;99.70;;;;;;5016826;28;20488;-55
2023/01/25 11:35:13;;;;;;;44.60;26.70;;;4.20;99.90;;;;;;5016841;28;20445;-57
2023/01/25 11:37:51;;;;;;;44.60;28.33;;;4.20;99.60;;;;;;5016817;28;20497;-57
2023/01/25 11:40:22;;;;;;;49.83;29.30;;;4.10;99.40;;;;;;5016370;28;20447;-56
2023/01/25 11:43:01;;;;;;;43.83;27.63;;;4.10;99.20;;;;;;5016631;28;20468;-56
2023/01/25 11:45:48;;;;;;;48.53;26.97;;;4.10;99.30;;;;;;5016806;28;20426;-56
2023/01/25 11:48:35;;;;;;;48.43;27.50;;;4.00;99.30;;;;;;5016591;28;20450;-57
2023/01/25 11:51:06;;;;;;;47.77;27.70;;;3.80;99.50;;;;;;5016204;28;20469;-56
2023/01/25 11:53:53;;;;;;;42.33;27.60;;;3.80;99.80;;;;;;5016440;28;20471;-57
2023/01/25 11:56:31;;;;;;;47.43;28.17;;;3.80;99.90;;;;;;5016180;28;20492;-57
2023/01/25 11:59:09;;;;;;;55.80;28.50;;;3.70;99.90;;;;;;5016050;28;20437;-55
2023/01/25 12:01:41;;;;;;;51.70;29.00;;;3.70;99.90;;;;;;5016254;28;20440;-57
2023/01/25 12:04:38;;;;;;;52.00;28.23;;;3.70;99.90;;;;;;5016215;28;20549;-56
2023/01/25 12:07:11;;;;;;;51.53;29.30;;;3.70;99.90;;;;;;5016598;28;20435;-55
2023/01/25 12:09:52;;;;;;;45.77;26.93;;;3.60;99.90;;;;;;5016224;28;20448;-56
2023/01/25 12:12:31;;;;;;;52.07;30.07;;;3.60;99.90;;;;;;5015765;28;20469;-57
2023/01/25 12:15:15;;;;;;;48.57;30.50;;;3.60;99.90;;;;;;5016093;28;20441;-57
2023/01/25 12:17:59;;;;;;;48.43;28.60;;;3.60;99.90;;;;;;5016178;28;20436;-56
2023/01/25 12:20:47;;;;;;;54.23;30.53;;;3.70;99.90;;;;;;5016012;28;20455;-57
2023/01/25 12:23:29;;;;;;;50.43;30.13;;;3.70;99.90;;;;;;5015887;28;20819;-57
2023/01/25 12:26:07;;;;;;;47.73;28.90;;;3.80;99.90;;;;;;5015578;28;20821;-55
2023/01/25 12:28:41;;;;;;;51.30;29.90;;;3.80;99.90;;;;;;5015079;28;20939;-57
2023/01/25 12:31:14;;;;;;;52.33;29.77;;;3.90;99.90;;;;;;5016055;28;20445;-57
2023/01/25 12:33:44;;;;;;;47.63;29.67;;;3.90;99.90;;;;;;5015702;28;20472;-57
2023/01/25 12:36:14;;;;;;;49.00;28.23;;;3.90;99.90;;;;;;5016081;28;20480;-57
2023/01/25 12:38:48;;;;;;;48.30;30.27;;;3.90;99.90;;;;;;5015367;28;20477;-57
2023/01/25 12:41:29;;;;;;;48.50;28.50;;;3.80;99.90;;;;;;5015728;28;20453;-56
2023/01/25 12:44:03;;;;;;;47.37;28.97;;;3.70;99.90;;;;;;5015359;28;20492;-56
2023/01/25 12:46:35;;;;;;;50.87;28.97;;;3.60;99.90;;;;;;5015237;28;20844;-57
2023/01/25 12:49:08;;;;;;;47.17;28.07;;;3.60;99.90;;;;;;5015518;28;20837;-56
2023/01/25 12:51:38;;;;;;;52.67;28.17;;;3.60;99.90;;;;;;5015261;28;20456;-56